Time;durP1;ratioP1;P1;durP2;ratioP2;P2;SDS_P1;SDS_P2;PMS_P1;PMS_P2;Temp;Humidity;BMP_temperature;BMP_pressure;BME280_temperature;BME280_humidity;BME280_pressure;Samples;Min_cycle;Max_cycle;Signal;HPM_P1;HPM_P2
2022/04/19 00:00:58;;;;;;;3.53;2.80;;;;;;;;;;7301257;19;140967;-80
2022/04/19 00:03:26;;;;;;;3.55;2.90;;;;;;;;;;7301012;19;141730;-80
2022/04/19 00:05:53;;;;;;;3.40;2.90;;;;;;;;;;7300994;19;141967;-80
2022/04/19 00:08:20;;;;;;;4.13;3.28;;;;;;;;;;7301481;19;140787;-80
2022/04/19 00:10:47;;;;;;;3.03;2.72;;;;;;;;;;7299158;19;140729;-79
2022/04/19 00:13:20;;;;;;;3.53;2.95;;;;;;;;;;7299597;19;140514;-80
2022/04/19 00:15:47;;;;;;;3.80;3.03;;;;;;;;;;7300537;19;142381;-81
2022/04/19 00:18:15;;;;;;;3.65;2.88;;;;;;;;;;7300937;19;141108;-81
2022/04/19 00:20:42;;;;;;;3.25;2.65;;;;;;;;;;7301238;19;141039;-81
2022/04/19 00:23:13;;;;;;;3.45;2.72;;;;;;;;;;7301004;19;141305;-80
2022/04/19 00:25:41;;;;;;;4.10;2.90;;;;;;;;;;7298941;19;142579;-80
2022/04/19 00:28:10;;;;;;;3.22;2.67;;;;;;;;;;7301083;19;140596;-79
2022/04/19 00:30:37;;;;;;;3.35;2.90;;;;;;;;;;7300031;19;140817;-79
2022/04/19 00:33:05;;;;;;;3.15;2.70;;;;;;;;;;7300304;19;141119;-79
2022/04/19 00:35:33;;;;;;;2.65;2.45;;;;;;;;;;7298442;19;142868;-80
2022/04/19 00:38:01;;;;;;;2.95;2.53;;;;;;;;;;7300451;19;140693;-79
2022/04/19 00:40:28;;;;;;;2.95;2.40;;;;;;;;;;7300631;19;140805;-79
2022/04/19 00:42:55;;;;;;;3.40;2.63;;;;;;;;;;7300694;19;141826;-79
2022/04/19 00:45:23;;;;;;;2.72;2.45;;;;;;;;;;7299718;19;141995;-79
2022/04/19 00:47:51;;;;;;;3.47;2.40;;;;;;;;;;7300594;19;140695;-79
2022/04/19 00:50:18;;;;;;;2.63;2.40;;;;;;;;;;7300394;19;140719;-79
2022/04/19 00:52:46;;;;;;;3.00;2.67;;;;;;;;;;7299641;19;141755;-79
2022/04/19 00:55:13;;;;;;;4.10;2.70;;;;;;;;;;7298635;19;143186;-79
2022/04/19 00:57:46;;;;;;;2.60;2.30;;;;;;;;;;7300231;19;140521;-79
2022/04/19 01:00:15;;;;;;;3.10;2.13;;;;;;;;;;7297432;19;140712;-80
2022/04/19 01:02:42;;;;;;;3.40;2.50;;;;;;;;;;7298726;19;140942;-79
2022/04/19 01:05:10;;;;;;;2.83;2.15;;;;;;;;;;7298486;19;142172;-79
2022/04/19 01:07:38;;;;;;;2.97;2.40;;;;;;;;;;7299279;19;140571;-79
2022/04/19 01:10:05;;;;;;;2.80;2.10;;;;;;;;;;7299168;19;140741;-79
2022/04/19 01:15:19;;;;;;;2.97;2.25;;;;;;;;;;7298483;19;142379;-79
2022/04/19 01:17:47;;;;;;;2.65;2.20;;;;;;;;;;7297591;19;140663;-80
2022/04/19 01:20:14;;;;;;;2.97;2.42;;;;;;;;;;7298823;19;140822;-79
2022/04/19 01:22:42;;;;;;;2.53;2.20;;;;;;;;;;7299272;19;140623;-79
2022/04/19 01:25:11;;;;;;;2.47;2.13;;;;;;;;;;7298944;19;141900;-79
2022/04/19 01:27:38;;;;;;;2.45;2.25;;;;;;;;;;7298496;19;140550;-79
2022/04/19 01:30:08;;;;;;;2.25;2.05;;;;;;;;;;7297102;19;140761;-79
2022/04/19 01:32:36;;;;;;;2.63;2.33;;;;;;;;;;7298351;19;141200;-79
2022/04/19 01:35:14;;;;;;;2.30;2.10;;;;;;;;;;7297951;19;140944;-79
2022/04/19 01:37:48;;;;;;;2.63;2.00;;;;;;;;;;7298948;19;140752;-79
2022/04/19 01:40:19;;;;;;;2.00;1.80;;;;;;;;;;7299406;19;141324;-79
2022/04/19 01:42:53;;;;;;;3.08;1.95;;;;;;;;;;7296434;19;140646;-79
2022/04/19 01:45:25;;;;;;;2.10;1.88;;;;;;;;;;7297706;19;141954;-80
2022/04/19 01:47:53;;;;;;;2.50;2.10;;;;;;;;;;7296511;19;140833;-80
2022/04/19 01:50:21;;;;;;;2.35;2.15;;;;;;;;;;7298344;19;140856;-79
2022/04/19 01:52:50;;;;;;;2.60;2.00;;;;;;;;;;7298247;19;141201;-80
2022/04/19 01:55:18;;;;;;;2.67;2.05;;;;;;;;;;7297731;19;141160;-80
2022/04/19 01:57:49;;;;;;;2.75;1.98;;;;;;;;;;7298187;19;140578;-79
2022/04/19 02:00:16;;;;;;;2.22;1.80;;;;;;;;;;7297862;19;140720;-79
2022/04/19 02:02:45;;;;;;;1.80;1.70;;;;;;;;;;7297435;19;141408;-79
2022/04/19 02:05:13;;;;;;;2.97;1.70;;;;;;;;;;7297620;19;141436;-79
2022/04/19 02:07:44;;;;;;;2.22;1.98;;;;;;;;;;7298002;19;141278;-79
2022/04/19 02:10:14;;;;;;;2.00;1.80;;;;;;;;;;7297676;19;140637;-79
2022/04/19 02:12:42;;;;;;;2.03;1.80;;;;;;;;;;7297454;19;141188;-79
2022/04/19 02:15:09;;;;;;;2.67;2.10;;;;;;;;;;7296681;19;141847;-79
2022/04/19 02:17:47;;;;;;;2.30;1.85;;;;;;;;;;7304737;19;140468;-79
2022/04/19 02:20:16;;;;;;;1.75;1.60;;;;;;;;;;7303614;19;140631;-79
2022/04/19 02:22:44;;;;;;;1.95;1.67;;;;;;;;;;7305076;19;142222;-80
2022/04/19 02:25:14;;;;;;;2.53;2.10;;;;;;;;;;7304900;19;140779;-78
2022/04/19 02:27:42;;;;;;;1.80;1.70;;;;;;;;;;7304944;19;140736;-79
2022/04/19 02:30:14;;;;;;;2.10;1.63;;;;;;;;;;7304056;19;140796;-79
2022/04/19 02:32:47;;;;;;;2.30;1.70;;;;;;;;;;7303072;19;142421;-79
2022/04/19 02:35:18;;;;;;;2.17;1.90;;;;;;;;;;7304432;19;142385;-79
2022/04/19 02:37:49;;;;;;;;;;;;;;;;;;7304939;19;140528;-79
2022/04/19 02:40:18;;;;;;;1.63;1.40;;;;;;;;;;7304859;19;140512;-79
2022/04/19 02:42:46;;;;;;;1.90;1.60;;;;;;;;;;7303852;19;140775;-79
2022/04/19 02:45:13;;;;;;;1.70;1.60;;;;;;;;;;7301587;19;141235;-79
2022/04/19 02:47:43;;;;;;;2.53;1.60;;;;;;;;;;7304674;19;140675;-79
2022/04/19 02:50:10;;;;;;;1.90;1.37;;;;;;;;;;7303944;19;140691;-80
2022/04/19 02:52:38;;;;;;;2.15;1.95;;;;;;;;;;7303792;19;141270;-79
2022/04/19 02:55:06;;;;;;;1.90;1.70;;;;;;;;;;7303427;19;141992;-79
2022/04/19 02:57:33;;;;;;;1.60;1.50;;;;;;;;;;7303657;19;140646;-80
2022/04/19 03:00:00;;;;;;;1.50;1.40;;;;;;;;;;7303049;19;140971;-79
2022/04/19 03:02:27;;;;;;;2.33;1.50;;;;;;;;;;7302378;19;141834;-79
2022/04/19 03:04:55;;;;;;;1.65;1.50;;;;;;;;;;7302971;19;141983;-79
2022/04/19 03:07:22;;;;;;;2.47;1.73;;;;;;;;;;7303760;19;140655;-79
2022/04/19 03:09:49;;;;;;;1.60;1.50;;;;;;;;;;7303522;19;140857;-79
2022/04/19 03:12:16;;;;;;;1.60;1.40;;;;;;;;;;7302910;19;141333;-79
2022/04/19 03:14:43;;;;;;;1.65;1.40;;;;;;;;;;7303174;19;142232;-79
2022/04/19 03:17:10;;;;;;;1.58;1.48;;;;;;;;;;7302697;19;140895;-79
2022/04/19 03:19:37;;;;;;;1.70;1.60;;;;;;;;;;7303130;19;140667;-79
2022/04/19 03:22:04;;;;;;;1.55;1.45;;;;;;;;;;7303552;19;141193;-79
2022/04/19 03:30:03;;;;;;;2.10;1.67;;;;;;;;;;7303790;19;140877;-79
2022/04/19 03:32:32;;;;;;;1.80;1.48;;;;;;;;;;7325502;19;140606;-79
2022/04/19 03:34:59;;;;;;;1.65;1.27;;;;;;;;;;7325854;19;141376;-80
2022/04/19 03:37:26;;;;;;;1.67;1.30;;;;;;;;;;7316919;19;140537;-80
2022/04/19 03:39:53;;;;;;;1.48;1.38;;;;;;;;;;7304404;19;140622;-80
2022/04/19 03:42:20;;;;;;;1.33;1.20;;;;;;;;;;7303927;19;140734;-80
2022/04/19 03:44:47;;;;;;;2.10;1.38;;;;;;;;;;7302198;19;141752;-79
2022/04/19 03:47:15;;;;;;;1.65;1.20;;;;;;;;;;7301312;19;140837;-79
2022/04/19 03:49:42;;;;;;;1.38;1.27;;;;;;;;;;7302193;19;140494;-79
2022/04/19 03:52:10;;;;;;;1.48;1.30;;;;;;;;;;7301928;19;140898;-79
2022/04/19 03:54:37;;;;;;;1.98;1.30;;;;;;;;;;7301930;19;140918;-80
2022/04/19 03:57:07;;;;;;;1.23;1.13;;;;;;;;;;7301708;19;140728;-80
2022/04/19 03:59:37;;;;;;;1.53;1.40;;;;;;;;;;7302498;19;140806;-80
2022/04/19 04:02:06;;;;;;;1.33;1.23;;;;;;;;;;7300385;19;141538;-80
2022/04/19 04:04:35;;;;;;;1.48;1.38;;;;;;;;;;7301352;19;142726;-79
2022/04/19 04:07:03;;;;;;;1.25;1.15;;;;;;;;;;7302176;19;140716;-80
2022/04/19 04:09:35;;;;;;;1.90;1.42;;;;;;;;;;7298948;19;140688;-81
2022/04/19 04:12:09;;;;;;;1.42;1.20;;;;;;;;;;7301394;19;140780;-81
2022/04/19 04:14:36;;;;;;;1.27;1.17;;;;;;;;;;7301394;19;142419;-80
2022/04/19 04:17:04;;;;;;;1.35;1.25;;;;;;;;;;7299418;19;140977;-81
2022/04/19 04:19:31;;;;;;;1.77;1.30;;;;;;;;;;7301281;19;140616;-81
2022/04/19 04:21:58;;;;;;;1.65;1.42;;;;;;;;;;7300522;19;141346;-81
2022/04/19 04:24:25;;;;;;;1.30;1.20;;;;;;;;;;7301515;19;142668;-81
2022/04/19 04:26:52;;;;;;;1.20;1.10;;;;;;;;;;7301054;19;140569;-80
2022/04/19 04:29:19;;;;;;;1.48;1.10;;;;;;;;;;7300860;19;140525;-80
2022/04/19 04:31:46;;;;;;;1.67;1.10;;;;;;;;;;7300082;19;141362;-79
2022/04/19 04:34:13;;;;;;;1.30;1.20;;;;;;;;;;7300536;19;142645;-80
2022/04/19 04:36:40;;;;;;;1.63;1.20;;;;;;;;;;7300246;19;140985;-79
2022/04/19 04:39:07;;;;;;;1.92;1.20;;;;;;;;;;7298516;19;140588;-79
2022/04/19 04:41:34;;;;;;;2.75;1.30;;;;;;;;;;7300556;19;141518;-81
2022/04/19 04:44:01;;;;;;;2.20;1.40;;;;;;;;;;7298199;19;140914;-80
2022/04/19 04:52:00;;;;;;;2.35;1.10;;;;;;;;;;7300268;19;141750;-79
2022/04/19 04:54:27;;;;;;;1.90;1.05;;;;;;;;;;7300248;19;140875;-79
2022/04/19 04:56:54;;;;;;;1.27;1.17;;;;;;;;;;7302549;19;141175;-79
2022/04/19 04:59:21;;;;;;;1.13;1.02;;;;;;;;;;7299970;19;140849;-80
2022/04/19 05:01:49;;;;;;;1.38;1.00;;;;;;;;;;7297481;19;140851;-80
2022/04/19 05:04:16;;;;;;;1.45;1.20;;;;;;;;;;7298916;19;141405;-79
2022/04/19 05:06:43;;;;;;;1.27;1.00;;;;;;;;;;7299403;19;140789;-80
2022/04/19 05:09:10;;;;;;;1.13;1.00;;;;;;;;;;7300109;19;140838;-80
2022/04/19 05:11:37;;;;;;;3.20;1.52;;;;;;;;;;7298765;19;141108;-79
2022/04/19 05:14:04;;;;;;;2.72;1.10;;;;;;;;;;7299757;19;140792;-80
2022/04/19 05:16:31;;;;;;;3.63;1.20;;;;;;;;;;7298901;19;142356;-79
2022/04/19 05:18:58;;;;;;;1.33;1.20;;;;;;;;;;7299354;19;140826;-79
2022/04/19 05:21:25;;;;;;;1.30;1.20;;;;;;;;;;7297423;19;141192;-79
2022/04/19 05:23:52;;;;;;;1.17;0.93;;;;;;;;;;7298991;19;141857;-79
2022/04/19 05:26:19;;;;;;;1.80;1.17;;;;;;;;;;7298527;19;140522;-77
2022/04/19 05:28:47;;;;;;;2.80;1.33;;;;;;;;;;7299292;19;140817;-77
2022/04/19 05:31:14;;;;;;;1.17;1.08;;;;;;;;;;7297969;19;141395;-77
2022/04/19 05:33:41;;;;;;;1.52;1.30;;;;;;;;;;7297282;19;142000;-78
2022/04/19 05:36:08;;;;;;;3.78;1.35;;;;;;;;;;7298976;19;140745;-78
2022/04/19 05:38:35;;;;;;;1.73;1.15;;;;;;;;;;7298838;19;140820;-78
2022/04/19 05:41:07;;;;;;;3.88;1.30;;;;;;;;;;7298267;19;141412;-78
2022/04/19 05:43:34;;;;;;;2.05;1.20;;;;;;;;;;7296523;19;142275;-78
2022/04/19 05:46:01;;;;;;;1.83;1.25;;;;;;;;;;7298728;19;140772;-78
2022/04/19 05:48:28;;;;;;;1.48;1.10;;;;;;;;;;7296994;19;141251;-78
2022/04/19 05:50:55;;;;;;;1.30;1.20;;;;;;;;;;7297996;19;141966;-78
2022/04/19 05:53:23;;;;;;;2.17;1.30;;;;;;;;;;7297624;19;140984;-78
2022/04/19 05:55:50;;;;;;;2.35;1.35;;;;;;;;;;7298515;19;140527;-77
2022/04/19 05:58:18;;;;;;;1.27;1.10;;;;;;;;;;7298260;19;140830;-77
2022/04/19 06:00:45;;;;;;;2.05;1.55;;;;;;;;;;7297675;19;141371;-78
2022/04/19 06:05:58;;;;;;;2.05;1.30;;;;;;;;;;7298051;19;140768;-78
2022/04/19 06:08:27;;;;;;;1.17;1.00;;;;;;;;;;7295922;19;140721;-78
2022/04/19 06:10:54;;;;;;;3.08;1.30;;;;;;;;;;7297793;19;141211;-78
2022/04/19 06:13:21;;;;;;;1.55;1.20;;;;;;;;;;7297413;19;141334;-78
2022/04/19 06:15:49;;;;;;;1.50;1.20;;;;;;;;;;7297873;19;140673;-78
2022/04/19 06:18:15;;;;;;;2.17;1.33;;;;;;;;;;7296840;19;140868;-78
2022/04/19 06:20:42;;;;;;;2.17;1.15;;;;;;;;;;7297289;19;141339;-78
2022/04/19 06:23:11;;;;;;;1.33;1.17;;;;;;;;;;7296660;19;142492;-79
2022/04/19 06:25:38;;;;;;;1.15;1.05;;;;;;;;;;7297994;19;140581;-78
2022/04/19 06:28:05;;;;;;;1.30;1.00;;;;;;;;;;7297056;19;140843;-78
2022/04/19 06:30:35;;;;;;;2.10;1.17;;;;;;;;;;7297305;19;141094;-77
2022/04/19 06:33:03;;;;;;;1.27;1.17;;;;;;;;;;7294371;19;142717;-78
2022/04/19 06:35:30;;;;;;;1.50;1.25;;;;;;;;;;7297719;19;140674;-77
2022/04/19 06:37:57;;;;;;;2.88;1.38;;;;;;;;;;7296993;19;140684;-77
2022/04/19 06:40:24;;;;;;;1.30;1.10;;;;;;;;;;7296771;19;142006;-77
2022/04/19 06:42:51;;;;;;;1.75;1.20;;;;;;;;;;7295990;19;142199;-77
2022/04/19 06:45:18;;;;;;;1.88;1.10;;;;;;;;;;7297033;19;141576;-77
2022/04/19 06:47:45;;;;;;;1.98;1.10;;;;;;;;;;7296561;19;140865;-77
2022/04/19 06:50:12;;;;;;;1.17;1.05;;;;;;;;;;7296472;19;140890;-77
2022/04/19 06:52:39;;;;;;;1.85;1.20;;;;;;;;;;7296632;19;142584;-78
2022/04/19 06:55:07;;;;;;;1.55;1.27;;;;;;;;;;7296561;19;140661;-78
2022/04/19 06:57:39;;;;;;;1.55;1.20;;;;;;;;;;7296295;19;140802;-78
2022/04/19 07:00:06;;;;;;;1.20;1.10;;;;;;;;;;7296211;19;141952;-78
2022/04/19 07:02:33;;;;;;;2.17;1.10;;;;;;;;;;7297943;19;141908;-78
2022/04/19 07:05:01;;;;;;;1.83;1.05;;;;;;;;;;7303510;19;140595;-78
2022/04/19 07:07:28;;;;;;;1.85;1.10;;;;;;;;;;7303882;19;141344;-78
2022/04/19 07:09:55;;;;;;;2.05;0.90;;;;;;;;;;7302777;19;141308;-78
2022/04/19 07:12:24;;;;;;;1.40;1.20;;;;;;;;;;7302523;19;141925;-78
2022/04/19 07:14:51;;;;;;;1.58;1.10;;;;;;;;;;7302273;19;141137;-78
2022/04/19 07:17:18;;;;;;;1.30;1.00;;;;;;;;;;7302358;19;140882;-78
2022/04/19 07:28:03;;;;;;;2.78;1.67;;;;;;;;;;7302585;19;140570;-77
2022/04/19 07:30:31;;;;;;;2.05;1.00;;;;;;;;;;7302475;19;140700;-81
2022/04/19 07:33:00;;;;;;;3.00;1.30;;;;;;;;;;7302278;19;141960;-79
2022/04/19 07:35:27;;;;;;;1.55;1.10;;;;;;;;;;7302588;19;140630;-79
2022/04/19 07:37:54;;;;;;;3.13;1.15;;;;;;;;;;7302982;19;140783;-79
2022/04/19 07:40:22;;;;;;;2.03;1.20;;;;;;;;;;7301430;19;141338;-79
2022/04/19 07:42:49;;;;;;;1.95;1.10;;;;;;;;;;7300007;19;141493;-79
2022/04/19 07:45:16;;;;;;;2.42;1.08;;;;;;;;;;7302927;19;141123;-78
2022/04/19 07:47:43;;;;;;;1.95;1.02;;;;;;;;;;7300210;19;140662;-80
2022/04/19 07:50:10;;;;;;;1.30;1.10;;;;;;;;;;7302137;19;141955;-78
2022/04/19 07:52:37;;;;;;;2.25;1.15;;;;;;;;;;7301468;19;142032;-79
2022/04/19 07:55:05;;;;;;;2.47;1.30;;;;;;;;;;7302126;19;141477;-89
2022/04/19 08:01:13;;;;;;;3.78;1.80;;;;;;;;;;7301735;19;141212;-86
2022/04/19 08:03:43;;;;;;;4.32;1.92;;;;;;;;;;7300881;19;142572;-79
2022/04/19 08:06:10;;;;;;;2.20;1.75;;;;;;;;;;7305506;19;140458;-81
2022/04/19 08:08:38;;;;;;;2.85;1.88;;;;;;;;;;7301831;19;140777;-80
2022/04/19 08:11:06;;;;;;;2.58;1.60;;;;;;;;;;7300289;19;142600;-81
2022/04/19 08:13:33;;;;;;;2.13;1.75;;;;;;;;;;7300258;19;140925;-80
2022/04/19 08:16:28;;;;;;;2.28;1.58;;;;;;;;;;7301398;19;140749;-82
2022/04/19 08:18:56;;;;;;;5.30;2.00;;;;;;;;;;7299720;19;140712;-83
2022/04/19 08:21:23;;;;;;;3.55;1.50;;;;;;;;;;7302388;19;140754;-84
2022/04/19 08:26:32;;;;;;;2.93;1.80;;;;;;;;;;7303069;19;140781;-81
2022/04/19 08:29:00;;;;;;;1.98;1.40;;;;;;;;;;7301183;19;141040;-81
2022/04/19 08:31:34;;;;;;;3.45;1.70;;;;;;;;;;7301799;19;140965;-81
2022/04/19 08:34:04;;;;;;;3.63;1.40;;;;;;;;;;7300391;19;141918;-81
2022/04/19 08:36:37;;;;;;;1.92;1.40;;;;;;;;;;7300105;19;141329;-81
2022/04/19 08:39:09;;;;;;;2.67;1.52;;;;;;;;;;7301224;19;140541;-83
2022/04/19 08:45:40;;;;;;;2.13;1.47;;;;;;;;;;7300084;19;141654;-80
2022/04/19 08:48:09;;;;;;;2.67;1.55;;;;;;;;;;7296487;19;140885;-81
2022/04/19 08:59:29;;;;;;;3.47;1.50;;;;;;;;;;7297080;19;140860;-82
2022/04/19 09:02:00;;;;;;;2.63;1.40;;;;;;;;;;7296868;19;141152;-83
2022/04/19 09:04:30;;;;;;;2.47;1.50;;;;;;;;;;7295717;19;141453;-81
2022/04/19 09:07:00;;;;;;;2.38;1.48;;;;;;;;;;7296864;19;140888;-83
2022/04/19 09:09:34;;;;;;;1.88;1.60;;;;;;;;;;7297222;19;142084;-84
2022/04/19 09:12:19;;;;;;;2.08;1.30;;;;;;;;;;7297164;19;140695;-84
2022/04/19 09:21:42;;;;;;;1.88;1.20;;;;;;;;;;7299988;19;140579;-80
2022/04/19 09:28:54;;;;;;;1.75;1.10;;;;;;;;;;7288188;19;143705;-81
2022/04/19 09:36:25;;;;;;;1.52;1.30;;;;;;;;;;7297885;19;141716;-87
2022/04/19 09:38:55;;;;;;;4.72;1.50;;;;;;;;;;7296206;19;141264;-86
2022/04/19 09:44:18;;;;;;;5.97;1.75;;;;;;;;;;7297429;19;141317;-80
2022/04/19 09:47:54;;;;;;;5.35;1.88;;;;;;;;;;7297032;19;140781;-80
2022/04/19 09:54:44;;;;;;;4.07;1.20;;;;;;;;;;7295699;19;143371;-79
2022/04/19 09:57:36;;;;;;;6.28;1.45;;;;;;;;;;7295057;19;141507;-79
2022/04/19 10:00:14;;;;;;;4.55;1.40;;;;;;;;;;7297721;19;140515;-79
2022/04/19 10:08:24;;;;;;;5.95;1.40;;;;;;;;;;7297609;19;142491;-79
2022/04/19 10:11:40;;;;;;;5.80;1.30;;;;;;;;;;7296155;19;140902;-79
2022/04/19 10:14:07;;;;;;;3.60;1.40;;;;;;;;;;7298616;19;140978;-77
2022/04/19 10:16:35;;;;;;;5.20;1.50;;;;;;;;;;7297674;19;143145;-76
2022/04/19 10:19:09;;;;;;;4.05;1.50;;;;;;;;;;7297118;19;141208;-77
2022/04/19 10:21:41;;;;;;;4.03;1.42;;;;;;;;;;7297472;19;141090;-77
2022/04/19 10:24:10;;;;;;;2.63;1.02;;;;;;;;;;7298591;19;140676;-76
2022/04/19 10:26:49;;;;;;;3.60;1.35;;;;;;;;;;7296740;19;141356;-76
2022/04/19 10:29:21;;;;;;;5.35;1.30;;;;;;;;;;7297351;19;140970;-76
2022/04/19 10:32:01;;;;;;;3.42;1.40;;;;;;;;;;7297515;19;140689;-77
2022/04/19 10:34:38;;;;;;;4.87;1.73;;;;;;;;;;7296668;19;140782;-76
2022/04/19 10:37:11;;;;;;;5.47;1.40;;;;;;;;;;7298287;19;140735;-77
2022/04/19 10:39:47;;;;;;;1.90;1.40;;;;;;;;;;7303852;19;141981;-77
2022/04/19 10:42:29;;;;;;;3.28;1.27;;;;;;;;;;7304252;19;140626;-78
2022/04/19 10:44:57;;;;;;;4.75;1.42;;;;;;;;;;7304126;19;140588;-77
2022/04/19 10:47:25;;;;;;;2.40;1.10;;;;;;;;;;7303395;19;142504;-78
2022/04/19 10:50:03;;;;;;;2.38;1.15;;;;;;;;;;7302906;19;141322;-77
2022/04/19 10:52:43;;;;;;;3.85;1.58;;;;;;;;;;7304828;19;140720;-77
2022/04/19 10:55:11;;;;;;;2.83;1.58;;;;;;;;;;7304213;19;141151;-77
2022/04/19 10:58:16;;;;;;;3.80;1.40;;;;;;;;;;7302519;19;140932;-77
2022/04/19 11:00:48;;;;;;;2.95;1.42;;;;;;;;;;7301916;19;141344;-77
2022/04/19 11:04:03;;;;;;;6.35;1.73;;;;;;;;;;7303871;19;140850;-78
2022/04/19 11:06:33;;;;;;;5.07;1.63;;;;;;;;;;7302339;19;143836;-77
2022/04/19 11:10:02;;;;;;;6.15;1.80;;;;;;;;;;7302111;19;140848;-76
2022/04/19 11:12:58;;;;;;;5.72;1.50;;;;;;;;;;7302957;19;141975;-77
2022/04/19 11:16:05;;;;;;;4.15;1.58;;;;;;;;;;7303997;19;140914;-76
2022/04/19 11:18:41;;;;;;;6.15;1.77;;;;;;;;;;7302764;19;140518;-76
2022/04/19 11:21:53;;;;;;;3.85;1.50;;;;;;;;;;7302585;19;140751;-76
2022/04/19 11:24:57;;;;;;;3.78;1.30;;;;;;;;;;7302436;19;141576;-76
2022/04/19 11:27:54;;;;;;;4.10;1.40;;;;;;;;;;7303007;19;140742;-76
2022/04/19 11:30:25;;;;;;;5.13;1.50;;;;;;;;;;7302540;19;140834;-76
2022/04/19 11:32:58;;;;;;;2.65;1.60;;;;;;;;;;7300073;19;142044;-76
2022/04/19 11:35:32;;;;;;;3.10;1.25;;;;;;;;;;7301245;19;142309;-77
2022/04/19 11:38:10;;;;;;;2.53;1.17;;;;;;;;;;7302964;19;141403;-76
2022/04/19 11:49:07;;;;;;;1.90;1.50;;;;;;;;;;7301579;19;140717;-77
2022/04/19 11:51:37;;;;;;;3.90;1.42;;;;;;;;;;7302125;19;140926;-77
2022/04/19 11:57:26;;;;;;;4.10;1.40;;;;;;;;;;7303490;19;140865;-80
2022/04/19 11:59:54;;;;;;;4.22;1.70;;;;;;;;;;7302486;19;140808;-78
2022/04/19 12:02:22;;;;;;;3.45;1.88;;;;;;;;;;7301792;19;140733;-78
2022/04/19 12:04:54;;;;;;;3.38;1.50;;;;;;;;;;7298043;19;142308;-78
2022/04/19 12:07:24;;;;;;;3.13;1.52;;;;;;;;;;7301468;19;141398;-78
2022/04/19 12:09:52;;;;;;;5.22;1.60;;;;;;;;;;7302477;19;140818;-78
2022/04/19 12:12:20;;;;;;;3.05;1.30;;;;;;;;;;7301986;19;140700;-78
2022/04/19 12:14:52;;;;;;;3.03;1.33;;;;;;;;;;7301875;19;141003;-78
2022/04/19 12:17:23;;;;;;;2.38;1.23;;;;;;;;;;7302185;19;141596;-78
2022/04/19 12:20:00;;;;;;;5.13;1.95;;;;;;;;;;7301615;19;140696;-78
2022/04/19 12:22:29;;;;;;;3.97;1.73;;;;;;;;;;7301411;19;140687;-79
2022/04/19 12:25:22;;;;;;;3.97;1.60;;;;;;;;;;7298850;19;140743;-78
2022/04/19 12:27:54;;;;;;;4.00;1.33;;;;;;;;;;7300863;19;142215;-78
2022/04/19 12:30:28;;;;;;;3.55;1.50;;;;;;;;;;7301641;19;141263;-78
2022/04/19 12:32:59;;;;;;;2.47;1.35;;;;;;;;;;7301351;19;140627;-78
2022/04/19 12:35:34;;;;;;;2.67;1.50;;;;;;;;;;7300597;19;140558;-79
2022/04/19 12:38:10;;;;;;;3.97;1.73;;;;;;;;;;7300741;19;140707;-78
2022/04/19 12:40:38;;;;;;;3.38;1.25;;;;;;;;;;7300618;19;140543;-78
2022/04/19 12:43:05;;;;;;;2.67;1.33;;;;;;;;;;7301125;19;141307;-76
2022/04/19 12:45:36;;;;;;;3.20;1.52;;;;;;;;;;7301377;19;142469;-77
2022/04/19 12:48:24;;;;;;;2.92;1.27;;;;;;;;;;7306125;19;141424;-77
2022/04/19 12:53:43;;;;;;;1.95;1.00;;;;;;;;;;7311678;19;140643;-78
2022/04/19 12:56:11;;;;;;;3.50;1.20;;;;;;;;;;7304812;19;141449;-78
2022/04/19 12:58:43;;;;;;;3.90;1.38;;;;;;;;;;7302315;19;143519;-78
2022/04/19 13:01:10;;;;;;;5.45;1.42;;;;;;;;;;7299836;19;140716;-77
2022/04/19 13:03:38;;;;;;;4.93;1.60;;;;;;;;;;7300592;19;140693;-78
2022/04/19 13:12:19;;;;;;;3.38;1.35;;;;;;;;;;7296539;19;140721;-79
2022/04/19 13:14:49;;;;;;;3.85;1.33;;;;;;;;;;7272395;19;140961;-79
2022/04/19 13:17:25;;;;;;;4.03;1.20;;;;;;;;;;7299141;19;142045;-79
2022/04/19 13:19:54;;;;;;;2.97;1.10;;;;;;;;;;7297537;19;140786;-81
2022/04/19 13:22:28;;;;;;;2.67;1.40;;;;;;;;;;7297900;19;140721;-82
2022/04/19 13:25:10;;;;;;;1.67;1.23;;;;;;;;;;7294527;19;140930;-82
2022/04/19 13:27:40;;;;;;;3.70;1.52;;;;;;;;;;7297016;19;140770;-78
2022/04/19 13:30:13;;;;;;;2.50;1.38;;;;;;;;;;7295049;19;141969;-78
2022/04/19 13:32:41;;;;;;;3.95;1.55;;;;;;;;;;7295203;19;140669;-77
2022/04/19 13:35:09;;;;;;;2.47;1.23;;;;;;;;;;7295014;19;141174;-77
2022/04/19 13:40:22;;;;;;;2.47;1.30;;;;;;;;;;7296177;19;142653;-78
2022/04/19 13:42:51;;;;;;;4.20;1.33;;;;;;;;;;7295964;19;140607;-78
2022/04/19 13:45:19;;;;;;;2.55;1.40;;;;;;;;;;7295866;19;140825;-77
2022/04/19 13:47:47;;;;;;;3.58;1.30;;;;;;;;;;7295484;19;141241;-76
2022/04/19 13:50:15;;;;;;;4.65;1.42;;;;;;;;;;7294181;19;141293;-77
2022/04/19 13:52:42;;;;;;;1.77;1.30;;;;;;;;;;7295560;19;140931;-80
2022/04/19 13:55:14;;;;;;;5.10;1.10;;;;;;;;;;7295389;19;140621;-77
2022/04/19 13:57:42;;;;;;;4.75;1.30;;;;;;;;;;7295350;19;141588;-79
2022/04/19 14:00:15;;;;;;;1.95;1.20;;;;;;;;;;7295124;19;141584;-79
2022/04/19 14:02:44;;;;;;;3.15;1.05;;;;;;;;;;7296418;19;140606;-78
2022/04/19 14:05:13;;;;;;;8.10;1.48;;;;;;;;;;7297559;19;140702;-77
2022/04/19 14:07:40;;;;;;;5.07;1.40;;;;;;;;;;7298238;19;141371;-77
2022/04/19 14:10:09;;;;;;;3.10;1.02;;;;;;;;;;7296560;19;142451;-77
2022/04/19 14:12:43;;;;;;;2.65;1.10;;;;;;;;;;7305560;19;140763;-77
2022/04/19 14:15:10;;;;;;;5.78;1.40;;;;;;;;;;7305208;19;140615;-78
2022/04/19 14:17:37;;;;;;;5.60;1.40;;;;;;;;;;7304777;19;140632;-78
2022/04/19 14:20:06;;;;;;;6.20;1.60;;;;;;;;;;7308178;19;142547;-77
2022/04/19 14:22:35;;;;;;;1.77;1.02;;;;;;;;;;7305005;19;140689;-79
2022/04/19 14:25:03;;;;;;;4.53;1.40;;;;;;;;;;7306686;19;140576;-79
2022/04/19 14:27:30;;;;;;;2.60;1.08;;;;;;;;;;7303829;19;142177;-79
2022/04/19 14:35:30;;;;;;;4.60;1.42;;;;;;;;;;7305841;19;140725;-79
2022/04/19 14:37:57;;;;;;;8.82;1.45;;;;;;;;;;7303882;19;141972;-80
2022/04/19 14:40:25;;;;;;;5.40;1.42;;;;;;;;;;7306777;19;141434;-81
2022/04/19 14:42:52;;;;;;;4.55;1.40;;;;;;;;;;7305351;19;140854;-82
2022/04/19 14:45:19;;;;;;;5.13;1.25;;;;;;;;;;7305288;19;140783;-77
2022/04/19 14:47:48;;;;;;;4.22;1.27;;;;;;;;;;7305165;19;140588;-80
2022/04/19 14:50:16;;;;;;;7.47;1.50;;;;;;;;;;7302876;19;142423;-79
2022/04/19 14:52:47;;;;;;;3.42;1.33;;;;;;;;;;7305798;19;140790;-79
2022/04/19 14:55:20;;;;;;;4.28;1.20;;;;;;;;;;7304799;19;140699;-82
2022/04/19 14:57:47;;;;;;;3.63;1.25;;;;;;;;;;7304622;19;140911;-81
2022/04/19 15:00:15;;;;;;;5.78;1.30;;;;;;;;;;7302756;19;143478;-81
2022/04/19 15:02:42;;;;;;;4.35;1.38;;;;;;;;;;7303960;19;140569;-81
2022/04/19 15:05:12;;;;;;;2.53;1.10;;;;;;;;;;7301730;19;140656;-79
2022/04/19 15:07:39;;;;;;;3.65;1.58;;;;;;;;;;7303691;19;141198;-79
2022/04/19 15:10:15;;;;;;;5.10;2.70;;;;;;;;;;7304760;19;141374;-90
2022/04/19 15:13:08;;;;;;;4.07;1.70;;;;;;;;;;7305426;19;140447;-89
2022/04/19 15:15:35;;;;;;;2.95;1.70;;;;;;;;;;7306277;19;140550;-91
2022/04/19 15:18:04;;;;;;;3.97;2.00;;;;;;;;;;7303864;19;142041;-87
2022/04/19 15:20:32;;;;;;;3.70;2.00;;;;;;;;;;7303864;19;142343;-91
2022/04/19 15:23:01;;;;;;;4.15;2.00;;;;;;;;;;7303396;19;141043;-90
2022/04/19 15:25:29;;;;;;;3.75;2.00;;;;;;;;;;7305513;19;140862;-96
2022/04/19 15:27:56;;;;;;;2.63;1.65;;;;;;;;;;7305109;19;141167;-90
2022/04/19 15:30:30;;;;;;;3.63;2.00;;;;;;;;;;7304327;19;142674;-96
2022/04/19 15:32:59;;;;;;;4.03;1.75;;;;;;;;;;7303921;19;140478;-96
2022/04/19 15:35:29;;;;;;;4.13;1.90;;;;;;;;;;7303231;19;141215;-90
2022/04/19 15:37:56;;;;;;;3.53;1.83;;;;;;;;;;7302762;19;140918;-92
2022/04/19 15:40:23;;;;;;;2.38;1.52;;;;;;;;;;7303443;19;141701;-89
2022/04/19 15:42:50;;;;;;;3.85;1.90;;;;;;;;;;7301834;19;140763;-85
2022/04/19 15:45:17;;;;;;;3.55;1.95;;;;;;;;;;7303470;19;141092;-84
2022/04/19 15:47:45;;;;;;;3.72;2.10;;;;;;;;;;7303320;19;141829;-90
2022/04/19 15:50:15;;;;;;;3.30;2.13;;;;;;;;;;7302374;19;141142;-90
2022/04/19 15:52:45;;;;;;;2.40;1.70;;;;;;;;;;7302885;19;140708;-93
2022/04/19 15:55:34;;;;;;;3.67;2.03;;;;;;;;;;7302989;19;140610;-92
2022/04/19 15:58:01;;;;;;;2.67;1.73;;;;;;;;;;7302949;19;142249;-88
2022/04/19 16:00:28;;;;;;;1.90;1.70;;;;;;;;;;7302286;19;141472;-87
2022/04/19 16:02:56;;;;;;;3.75;1.95;;;;;;;;;;7300967;19;140641;-87
2022/04/19 16:05:23;;;;;;;2.72;1.65;;;;;;;;;;7304625;19;140905;-87
2022/04/19 16:07:53;;;;;;;2.45;1.70;;;;;;;;;;7302336;19;140559;-79
2022/04/19 16:10:23;;;;;;;2.10;1.58;;;;;;;;;;7301975;19;140792;-81
2022/04/19 16:12:57;;;;;;;3.17;1.60;;;;;;;;;;7300065;19;140935;-83
2022/04/19 16:15:32;;;;;;;3.35;1.70;;;;;;;;;;7299988;19;140912;-82
2022/04/19 16:24:01;;;;;;;3.88;1.50;;;;;;;;;;7301337;19;141089;-85
2022/04/19 16:26:30;;;;;;;2.20;1.55;;;;;;;;;;7299760;19;141353;-83
2022/04/19 16:29:00;;;;;;;8.77;4.25;;;;;;;;;;7299929;19;140684;-90
2022/04/19 16:31:47;;;;;;;7.68;4.50;;;;;;;;;;7299428;19;141300;-84
2022/04/19 16:38:31;;;;;;;8.93;5.30;;;;;;;;;;7300617;19;140717;-86
2022/04/19 16:58:42;;;;;;;11.77;5.43;;;;;;;;;;7295651;19;141607;-82
2022/04/19 17:01:12;;;;;;;;;;;;;;;;;;7299582;19;141715;-83